sensor_id;sensor_type;location;lat;lon;timestamp;P1;durP1;ratioP1;P2;durP2;ratioP2
11197;SDS011;5655;48.744;9.162;2022-09-02T00:02:10;2.80;;;2.45;;
11197;SDS011;5655;48.744;9.162;2022-09-02T00:04:37;2.83;;;2.58;;
11197;SDS011;5655;48.744;9.162;2022-09-02T00:07:03;2.92;;;2.70;;
11197;SDS011;5655;48.744;9.162;2022-09-02T00:09:28;3.80;;;2.88;;
11197;SDS011;5655;48.744;9.162;2022-09-02T00:11:55;4.25;;;3.00;;
11197;SDS011;5655;48.744;9.162;2022-09-02T00:14:23;3.25;;;2.40;;
11197;SDS011;5655;48.744;9.162;2022-09-02T00:16:51;2.90;;;2.63;;
11197;SDS011;5655;48.744;9.162;2022-09-02T00:19:23;4.47;;;2.25;;
11197;SDS011;5655;48.744;9.162;2022-09-02T00:21:50;3.42;;;2.70;;
11197;SDS011;5655;48.744;9.162;2022-09-02T00:24:17;4.07;;;2.75;;
11197;SDS011;5655;48.744;9.162;2022-09-02T00:26:44;2.95;;;2.67;;
11197;SDS011;5655;48.744;9.162;2022-09-02T00:29:10;3.30;;;2.60;;
11197;SDS011;5655;48.744;9.162;2022-09-02T00:31:37;2.92;;;2.60;;
11197;SDS011;5655;48.744;9.162;2022-09-02T00:34:03;5.22;;;2.58;;
11197;SDS011;5655;48.744;9.162;2022-09-02T00:36:29;3.45;;;2.60;;
11197;SDS011;5655;48.744;9.162;2022-09-02T00:38:55;2.95;;;2.25;;
11197;SDS011;5655;48.744;9.162;2022-09-02T00:41:22;4.13;;;2.40;;
11197;SDS011;5655;48.744;9.162;2022-09-02T00:43:50;2.50;;;2.17;;
11197;SDS011;5655;48.744;9.162;2022-09-02T00:46:18;2.92;;;2.50;;
11197;SDS011;5655;48.744;9.162;2022-09-02T00:48:52;2.70;;;2.50;;
11197;SDS011;5655;48.744;9.162;2022-09-02T00:51:33;2.47;;;2.28;;
11197;SDS011;5655;48.744;9.162;2022-09-02T00:54:03;5.95;;;2.60;;
11197;SDS011;5655;48.744;9.162;2022-09-02T00:56:30;2.53;;;2.33;;
11197;SDS011;5655;48.744;9.162;2022-09-02T00:58:56;3.28;;;2.20;;
11197;SDS011;5655;48.744;9.162;2022-09-02T01:01:23;2.50;;;2.30;;
11197;SDS011;5655;48.744;9.162;2022-09-02T01:03:49;2.70;;;2.22;;
11197;SDS011;5655;48.744;9.162;2022-09-02T01:06:16;2.50;;;2.30;;
11197;SDS011;5655;48.744;9.162;2022-09-02T01:08:46;2.65;;;2.03;;
11197;SDS011;5655;48.744;9.162;2022-09-02T01:11:18;2.38;;;2.17;;
11197;SDS011;5655;48.744;9.162;2022-09-02T01:13:45;3.13;;;2.40;;
11197;SDS011;5655;48.744;9.162;2022-09-02T01:16:16;2.85;;;2.20;;
11197;SDS011;5655;48.744;9.162;2022-09-02T01:18:49;5.38;;;2.28;;
11197;SDS011;5655;48.744;9.162;2022-09-02T01:21:16;2.33;;;2.00;;
11197;SDS011;5655;48.744;9.162;2022-09-02T01:23:42;2.63;;;2.42;;
11197;SDS011;5655;48.744;9.162;2022-09-02T01:26:09;4.80;;;2.33;;
11197;SDS011;5655;48.744;9.162;2022-09-02T01:28:34;4.40;;;2.30;;
11197;SDS011;5655;48.744;9.162;2022-09-02T01:31:00;3.30;;;2.33;;
11197;SDS011;5655;48.744;9.162;2022-09-02T01:33:25;2.88;;;2.30;;
11197;SDS011;5655;48.744;9.162;2022-09-02T01:35:51;3.17;;;2.38;;
11197;SDS011;5655;48.744;9.162;2022-09-02T01:38:17;3.03;;;2.67;;
11197;SDS011;5655;48.744;9.162;2022-09-02T01:40:42;3.40;;;2.53;;
11197;SDS011;5655;48.744;9.162;2022-09-02T01:43:13;2.50;;;2.30;;
11197;SDS011;5655;48.744;9.162;2022-09-02T01:45:43;3.78;;;2.17;;
11197;SDS011;5655;48.744;9.162;2022-09-02T01:48:11;3.72;;;2.28;;
11197;SDS011;5655;48.744;9.162;2022-09-02T01:50:37;3.22;;;2.28;;
11197;SDS011;5655;48.744;9.162;2022-09-02T01:53:05;3.10;;;2.35;;
11197;SDS011;5655;48.744;9.162;2022-09-02T01:55:31;3.33;;;2.17;;
11197;SDS011;5655;48.744;9.162;2022-09-02T01:57:58;2.92;;;2.63;;
11197;SDS011;5655;48.744;9.162;2022-09-02T02:00:23;3.30;;;2.47;;
11197;SDS011;5655;48.744;9.162;2022-09-02T02:02:49;2.70;;;2.40;;
11197;SDS011;5655;48.744;9.162;2022-09-02T02:05:15;4.43;;;2.58;;
11197;SDS011;5655;48.744;9.162;2022-09-02T02:07:42;4.15;;;2.50;;
11197;SDS011;5655;48.744;9.162;2022-09-02T02:10:09;3.35;;;2.17;;
11197;SDS011;5655;48.744;9.162;2022-09-02T02:12:36;2.60;;;2.40;;
11197;SDS011;5655;48.744;9.162;2022-09-02T02:15:03;3.95;;;2.60;;
11197;SDS011;5655;48.744;9.162;2022-09-02T02:17:32;3.50;;;2.40;;
11197;SDS011;5655;48.744;9.162;2022-09-02T02:19:58;2.65;;;2.40;;
11197;SDS011;5655;48.744;9.162;2022-09-02T02:22:23;4.53;;;2.65;;
11197;SDS011;5655;48.744;9.162;2022-09-02T02:24:49;6.13;;;2.17;;
11197;SDS011;5655;48.744;9.162;2022-09-02T02:27:14;2.70;;;2.28;;
11197;SDS011;5655;48.744;9.162;2022-09-02T02:29:39;3.13;;;2.20;;
11197;SDS011;5655;48.744;9.162;2022-09-02T02:32:05;4.35;;;2.10;;
11197;SDS011;5655;48.744;9.162;2022-09-02T02:34:32;3.47;;;2.50;;
11197;SDS011;5655;48.744;9.162;2022-09-02T02:36:58;3.03;;;2.45;;
11197;SDS011;5655;48.744;9.162;2022-09-02T02:39:23;2.50;;;2.30;;
11197;SDS011;5655;48.744;9.162;2022-09-02T02:41:48;2.90;;;2.30;;
11197;SDS011;5655;48.744;9.162;2022-09-02T02:44:14;3.00;;;2.22;;
11197;SDS011;5655;48.744;9.162;2022-09-02T02:46:40;4.78;;;2.70;;
11197;SDS011;5655;48.744;9.162;2022-09-02T02:49:06;3.95;;;2.17;;
11197;SDS011;5655;48.744;9.162;2022-09-02T02:51:32;4.10;;;2.42;;
11197;SDS011;5655;48.744;9.162;2022-09-02T02:53:59;5.82;;;2.95;;
11197;SDS011;5655;48.744;9.162;2022-09-02T02:56:25;3.47;;;2.65;;
11197;SDS011;5655;48.744;9.162;2022-09-02T02:58:52;6.55;;;2.45;;
11197;SDS011;5655;48.744;9.162;2022-09-02T03:01:18;5.13;;;2.85;;
11197;SDS011;5655;48.744;9.162;2022-09-02T03:03:43;2.92;;;2.47;;
11197;SDS011;5655;48.744;9.162;2022-09-02T03:06:09;4.53;;;2.42;;
11197;SDS011;5655;48.744;9.162;2022-09-02T03:08:34;2.60;;;2.40;;
11197;SDS011;5655;48.744;9.162;2022-09-02T03:11:02;10.73;;;3.10;;
11197;SDS011;5655;48.744;9.162;2022-09-02T03:13:31;3.17;;;2.60;;
11197;SDS011;5655;48.744;9.162;2022-09-02T03:15:57;3.13;;;2.60;;
11197;SDS011;5655;48.744;9.162;2022-09-02T03:18:22;3.35;;;2.42;;
11197;SDS011;5655;48.744;9.162;2022-09-02T03:20:48;4.38;;;2.47;;
11197;SDS011;5655;48.744;9.162;2022-09-02T03:23:14;4.50;;;2.58;;
11197;SDS011;5655;48.744;9.162;2022-09-02T03:25:43;4.45;;;2.67;;
11197;SDS011;5655;48.744;9.162;2022-09-02T03:28:09;2.83;;;2.33;;
11197;SDS011;5655;48.744;9.162;2022-09-02T03:30:36;2.80;;;2.58;;
11197;SDS011;5655;48.744;9.162;2022-09-02T03:33:02;3.08;;;2.67;;
11197;SDS011;5655;48.744;9.162;2022-09-02T03:35:29;6.28;;;2.88;;
11197;SDS011;5655;48.744;9.162;2022-09-02T03:37:56;3.55;;;2.55;;
11197;SDS011;5655;48.744;9.162;2022-09-02T03:40:24;3.65;;;2.70;;
11197;SDS011;5655;48.744;9.162;2022-09-02T03:42:51;5.72;;;2.60;;
11197;SDS011;5655;48.744;9.162;2022-09-02T03:45:17;3.78;;;2.50;;
11197;SDS011;5655;48.744;9.162;2022-09-02T03:47:44;3.22;;;2.55;;
11197;SDS011;5655;48.744;9.162;2022-09-02T03:50:21;4.55;;;2.83;;
11197;SDS011;5655;48.744;9.162;2022-09-02T03:52:49;4.00;;;2.80;;
11197;SDS011;5655;48.744;9.162;2022-09-02T03:55:15;5.72;;;2.75;;
11197;SDS011;5655;48.744;9.162;2022-09-02T03:57:41;2.72;;;2.53;;
11197;SDS011;5655;48.744;9.162;2022-09-02T04:00:08;3.40;;;2.40;;
11197;SDS011;5655;48.744;9.162;2022-09-02T04:02:35;2.92;;;2.30;;
11197;SDS011;5655;48.744;9.162;2022-09-02T04:05:00;3.33;;;2.63;;
11197;SDS011;5655;48.744;9.162;2022-09-02T04:07:26;3.17;;;2.50;;
11197;SDS011;5655;48.744;9.162;2022-09-02T04:09:51;3.88;;;2.60;;
11197;SDS011;5655;48.744;9.162;2022-09-02T04:12:17;3.55;;;2.20;;
11197;SDS011;5655;48.744;9.162;2022-09-02T04:14:42;3.08;;;2.67;;
11197;SDS011;5655;48.744;9.162;2022-09-02T04:20:47;3.63;;;2.50;;
11197;SDS011;5655;48.744;9.162;2022-09-02T04:23:25;2.83;;;2.53;;
11197;SDS011;5655;48.744;9.162;2022-09-02T04:25:51;4.50;;;2.70;;
11197;SDS011;5655;48.744;9.162;2022-09-02T04:28:17;5.40;;;2.90;;
11197;SDS011;5655;48.744;9.162;2022-09-02T04:30:42;5.25;;;2.63;;
11197;SDS011;5655;48.744;9.162;2022-09-02T04:33:08;4.90;;;2.95;;
11197;SDS011;5655;48.744;9.162;2022-09-02T04:35:33;3.30;;;2.67;;
11197;SDS011;5655;48.744;9.162;2022-09-02T04:38:00;5.53;;;3.20;;
11197;SDS011;5655;48.744;9.162;2022-09-02T04:40:26;3.75;;;2.80;;
11197;SDS011;5655;48.744;9.162;2022-09-02T04:42:51;3.90;;;2.90;;
11197;SDS011;5655;48.744;9.162;2022-09-02T04:45:17;6.35;;;3.25;;
11197;SDS011;5655;48.744;9.162;2022-09-02T04:47:43;4.60;;;3.10;;
11197;SDS011;5655;48.744;9.162;2022-09-02T04:50:08;4.20;;;3.38;;
11197;SDS011;5655;48.744;9.162;2022-09-02T04:52:34;3.78;;;2.97;;
11197;SDS011;5655;48.744;9.162;2022-09-02T04:54:59;4.68;;;2.63;;
11197;SDS011;5655;48.744;9.162;2022-09-02T04:57:24;4.57;;;3.38;;
11197;SDS011;5655;48.744;9.162;2022-09-02T04:59:50;3.33;;;3.03;;
11197;SDS011;5655;48.744;9.162;2022-09-02T05:02:15;3.63;;;2.95;;
11197;SDS011;5655;48.744;9.162;2022-09-02T05:04:42;4.93;;;3.40;;
11197;SDS011;5655;48.744;9.162;2022-09-02T05:07:07;4.68;;;3.80;;
11197;SDS011;5655;48.744;9.162;2022-09-02T05:09:32;5.63;;;3.35;;
11197;SDS011;5655;48.744;9.162;2022-09-02T05:11:58;4.82;;;3.67;;
11197;SDS011;5655;48.744;9.162;2022-09-02T05:14:28;4.68;;;3.13;;
11197;SDS011;5655;48.744;9.162;2022-09-02T05:16:54;3.42;;;3.10;;
11197;SDS011;5655;48.744;9.162;2022-09-02T05:19:20;6.07;;;3.45;;
11197;SDS011;5655;48.744;9.162;2022-09-02T05:21:47;4.18;;;3.78;;
11197;SDS011;5655;48.744;9.162;2022-09-02T05:24:14;4.50;;;2.90;;
11197;SDS011;5655;48.744;9.162;2022-09-02T05:26:40;5.28;;;3.25;;
11197;SDS011;5655;48.744;9.162;2022-09-02T05:29:06;4.15;;;2.80;;
11197;SDS011;5655;48.744;9.162;2022-09-02T05:31:32;4.97;;;2.90;;
11197;SDS011;5655;48.744;9.162;2022-09-02T05:33:58;3.40;;;3.08;;
11197;SDS011;5655;48.744;9.162;2022-09-02T05:36:23;4.20;;;3.13;;
11197;SDS011;5655;48.744;9.162;2022-09-02T05:38:48;5.43;;;2.80;;
11197;SDS011;5655;48.744;9.162;2022-09-02T05:41:17;4.45;;;3.03;;
11197;SDS011;5655;48.744;9.162;2022-09-02T05:43:47;3.97;;;3.03;;
11197;SDS011;5655;48.744;9.162;2022-09-02T05:46:14;4.20;;;3.00;;
11197;SDS011;5655;48.744;9.162;2022-09-02T05:48:41;3.05;;;2.75;;
11197;SDS011;5655;48.744;9.162;2022-09-02T05:51:26;4.45;;;2.67;;
11197;SDS011;5655;48.744;9.162;2022-09-02T05:53:54;3.63;;;2.80;;
11197;SDS011;5655;48.744;9.162;2022-09-02T05:56:21;3.40;;;3.08;;
11197;SDS011;5655;48.744;9.162;2022-09-02T05:58:48;3.75;;;3.03;;
11197;SDS011;5655;48.744;9.162;2022-09-02T06:01:15;5.47;;;3.10;;
11197;SDS011;5655;48.744;9.162;2022-09-02T06:03:42;2.60;;;2.30;;
11197;SDS011;5655;48.744;9.162;2022-09-02T06:06:07;4.20;;;2.70;;
11197;SDS011;5655;48.744;9.162;2022-09-02T06:08:33;4.38;;;2.90;;
11197;SDS011;5655;48.744;9.162;2022-09-02T06:10:59;2.97;;;2.35;;
11197;SDS011;5655;48.744;9.162;2022-09-02T06:13:30;4.10;;;2.70;;
11197;SDS011;5655;48.744;9.162;2022-09-02T06:15:57;5.18;;;3.00;;
11197;SDS011;5655;48.744;9.162;2022-09-02T06:18:23;3.67;;;2.80;;
11197;SDS011;5655;48.744;9.162;2022-09-02T06:20:49;2.90;;;2.63;;
11197;SDS011;5655;48.744;9.162;2022-09-02T06:23:15;4.93;;;2.78;;
11197;SDS011;5655;48.744;9.162;2022-09-02T06:25:42;2.90;;;2.65;;
11197;SDS011;5655;48.744;9.162;2022-09-02T06:28:10;5.18;;;2.83;;
11197;SDS011;5655;48.744;9.162;2022-09-02T06:30:37;2.70;;;2.47;;
11197;SDS011;5655;48.744;9.162;2022-09-02T06:33:04;3.13;;;2.45;;
11197;SDS011;5655;48.744;9.162;2022-09-02T06:35:30;3.97;;;2.65;;
11197;SDS011;5655;48.744;9.162;2022-09-02T06:38:00;3.58;;;2.85;;
11197;SDS011;5655;48.744;9.162;2022-09-02T06:40:25;3.30;;;3.00;;
11197;SDS011;5655;48.744;9.162;2022-09-02T06:42:51;4.80;;;2.65;;
11197;SDS011;5655;48.744;9.162;2022-09-02T06:45:18;5.38;;;2.50;;
11197;SDS011;5655;48.744;9.162;2022-09-02T06:47:44;4.63;;;2.70;;
11197;SDS011;5655;48.744;9.162;2022-09-02T06:50:10;3.15;;;2.55;;
11197;SDS011;5655;48.744;9.162;2022-09-02T06:52:36;5.75;;;2.70;;
11197;SDS011;5655;48.744;9.162;2022-09-02T06:55:02;4.03;;;2.70;;
11197;SDS011;5655;48.744;9.162;2022-09-02T06:57:28;5.10;;;2.92;;
11197;SDS011;5655;48.744;9.162;2022-09-02T06:59:54;3.92;;;2.50;;
11197;SDS011;5655;48.744;9.162;2022-09-02T07:02:20;4.72;;;2.72;;
11197;SDS011;5655;48.744;9.162;2022-09-02T07:04:45;4.80;;;2.70;;
11197;SDS011;5655;48.744;9.162;2022-09-02T07:07:30;3.15;;;2.58;;
11197;SDS011;5655;48.744;9.162;2022-09-02T07:09:55;4.93;;;2.70;;
11197;SDS011;5655;48.744;9.162;2022-09-02T07:12:21;4.50;;;2.28;;
11197;SDS011;5655;48.744;9.162;2022-09-02T07:14:46;3.90;;;2.60;;
11197;SDS011;5655;48.744;9.162;2022-09-02T07:17:12;3.20;;;2.58;;
11197;SDS011;5655;48.744;9.162;2022-09-02T07:19:45;3.30;;;2.40;;
11197;SDS011;5655;48.744;9.162;2022-09-02T07:22:11;4.07;;;2.60;;
11197;SDS011;5655;48.744;9.162;2022-09-02T07:24:36;8.30;;;2.80;;
11197;SDS011;5655;48.744;9.162;2022-09-02T07:27:02;4.43;;;2.55;;
11197;SDS011;5655;48.744;9.162;2022-09-02T07:29:27;3.42;;;2.53;;
11197;SDS011;5655;48.744;9.162;2022-09-02T07:31:53;3.05;;;2.40;;
11197;SDS011;5655;48.744;9.162;2022-09-02T07:34:18;2.58;;;2.38;;
11197;SDS011;5655;48.744;9.162;2022-09-02T07:36:44;7.10;;;2.75;;
11197;SDS011;5655;48.744;9.162;2022-09-02T07:39:12;3.33;;;2.40;;
11197;SDS011;5655;48.744;9.162;2022-09-02T07:41:39;3.17;;;2.25;;
11197;SDS011;5655;48.744;9.162;2022-09-02T07:44:07;3.75;;;2.20;;
11197;SDS011;5655;48.744;9.162;2022-09-02T07:46:33;4.82;;;2.38;;
11197;SDS011;5655;48.744;9.162;2022-09-02T07:48:59;2.30;;;2.10;;
11197;SDS011;5655;48.744;9.162;2022-09-02T07:51:29;4.28;;;2.13;;
11197;SDS011;5655;48.744;9.162;2022-09-02T07:53:54;3.83;;;2.20;;
11197;SDS011;5655;48.744;9.162;2022-09-02T07:56:20;2.92;;;2.03;;
11197;SDS011;5655;48.744;9.162;2022-09-02T07:58:45;2.03;;;1.83;;
11197;SDS011;5655;48.744;9.162;2022-09-02T08:01:11;2.03;;;1.80;;
11197;SDS011;5655;48.744;9.162;2022-09-02T08:03:38;2.67;;;2.15;;
11197;SDS011;5655;48.744;9.162;2022-09-02T08:06:05;2.40;;;2.00;;
11197;SDS011;5655;48.744;9.162;2022-09-02T08:08:31;3.00;;;2.17;;
11197;SDS011;5655;48.744;9.162;2022-09-02T08:10:57;2.58;;;2.20;;
11197;SDS011;5655;48.744;9.162;2022-09-02T08:13:23;4.55;;;1.90;;
11197;SDS011;5655;48.744;9.162;2022-09-02T08:15:49;2.20;;;1.92;;
11197;SDS011;5655;48.744;9.162;2022-09-02T08:18:15;3.78;;;1.80;;
11197;SDS011;5655;48.744;9.162;2022-09-02T08:20:40;5.07;;;1.70;;
11197;SDS011;5655;48.744;9.162;2022-09-02T08:23:06;2.55;;;1.83;;
11197;SDS011;5655;48.744;9.162;2022-09-02T08:25:33;5.88;;;2.17;;
11197;SDS011;5655;48.744;9.162;2022-09-02T08:28:02;1.75;;;1.58;;
11197;SDS011;5655;48.744;9.162;2022-09-02T08:30:28;2.33;;;1.92;;
11197;SDS011;5655;48.744;9.162;2022-09-02T08:32:53;3.15;;;1.63;;
11197;SDS011;5655;48.744;9.162;2022-09-02T08:35:20;3.80;;;1.83;;
11197;SDS011;5655;48.744;9.162;2022-09-02T08:37:45;2.65;;;1.60;;
11197;SDS011;5655;48.744;9.162;2022-09-02T08:40:21;2.90;;;1.85;;
11197;SDS011;5655;48.744;9.162;2022-09-02T08:42:52;2.92;;;1.77;;
11197;SDS011;5655;48.744;9.162;2022-09-02T08:45:21;4.68;;;2.08;;
11197;SDS011;5655;48.744;9.162;2022-09-02T08:48:38;5.05;;;1.95;;
11197;SDS011;5655;48.744;9.162;2022-09-02T08:50:41;4.20;;;1.98;;
11197;SDS011;5655;48.744;9.162;2022-09-02T08:53:27;4.43;;;1.80;;
11197;SDS011;5655;48.744;9.162;2022-09-02T08:56:01;3.22;;;1.70;;
11197;SDS011;5655;48.744;9.162;2022-09-02T08:58:34;4.20;;;1.63;;
11197;SDS011;5655;48.744;9.162;2022-09-02T09:01:12;2.28;;;1.42;;
11197;SDS011;5655;48.744;9.162;2022-09-02T09:03:48;2.13;;;1.45;;
11197;SDS011;5655;48.744;9.162;2022-09-02T09:17:41;2.45;;;1.60;;
11197;SDS011;5655;48.744;9.162;2022-09-02T09:20:16;2.95;;;1.58;;
11197;SDS011;5655;48.744;9.162;2022-09-02T09:22:44;3.22;;;1.70;;
11197;SDS011;5655;48.744;9.162;2022-09-02T09:25:13;1.80;;;1.50;;
11197;SDS011;5655;48.744;9.162;2022-09-02T09:27:40;1.75;;;1.63;;
11197;SDS011;5655;48.744;9.162;2022-09-02T09:30:07;2.78;;;1.52;;
11197;SDS011;5655;48.744;9.162;2022-09-02T09:32:36;3.70;;;1.30;;
11197;SDS011;5655;48.744;9.162;2022-09-02T09:35:09;3.20;;;1.38;;
11197;SDS011;5655;48.744;9.162;2022-09-02T09:40:44;2.90;;;1.35;;
11197;SDS011;5655;48.744;9.162;2022-09-02T09:43:10;2.08;;;1.58;;
11197;SDS011;5655;48.744;9.162;2022-09-02T09:50:40;1.63;;;1.20;;
11197;SDS011;5655;48.744;9.162;2022-09-02T09:55:48;2.25;;;1.17;;
11197;SDS011;5655;48.744;9.162;2022-09-02T09:58:15;4.28;;;1.25;;
11197;SDS011;5655;48.744;9.162;2022-09-02T10:00:41;1.27;;;1.10;;
11197;SDS011;5655;48.744;9.162;2022-09-02T10:03:06;2.33;;;1.20;;
11197;SDS011;5655;48.744;9.162;2022-09-02T10:05:35;2.47;;;1.30;;
11197;SDS011;5655;48.744;9.162;2022-09-02T10:08:03;3.55;;;1.30;;
11197;SDS011;5655;48.744;9.162;2022-09-02T10:10:55;1.58;;;1.10;;
11197;SDS011;5655;48.744;9.162;2022-09-02T10:13:28;2.45;;;1.25;;
11197;SDS011;5655;48.744;9.162;2022-09-02T10:17:01;2.42;;;1.10;;
11197;SDS011;5655;48.744;9.162;2022-09-02T10:19:10;1.92;;;1.10;;
11197;SDS011;5655;48.744;9.162;2022-09-02T10:25:06;2.35;;;1.13;;
11197;SDS011;5655;48.744;9.162;2022-09-02T10:28:12;4.53;;;1.45;;
11197;SDS011;5655;48.744;9.162;2022-09-02T10:53:50;1.63;;;0.90;;
11197;SDS011;5655;48.744;9.162;2022-09-02T10:56:30;1.58;;;1.10;;
11197;SDS011;5655;48.744;9.162;2022-09-02T10:59:12;2.33;;;1.00;;
11197;SDS011;5655;48.744;9.162;2022-09-02T11:01:47;0.98;;;0.90;;
11197;SDS011;5655;48.744;9.162;2022-09-02T11:07:02;1.48;;;1.10;;
11197;SDS011;5655;48.744;9.162;2022-09-02T11:12:06;3.15;;;1.20;;
11197;SDS011;5655;48.744;9.162;2022-09-02T11:19:52;2.75;;;1.10;;
11197;SDS011;5655;48.744;9.162;2022-09-02T11:22:25;1.67;;;1.00;;
11197;SDS011;5655;48.744;9.162;2022-09-02T11:24:58;1.45;;;1.10;;
11197;SDS011;5655;48.744;9.162;2022-09-02T11:30:04;1.65;;;1.00;;
11197;SDS011;5655;48.744;9.162;2022-09-02T11:35:34;1.42;;;1.00;;
11197;SDS011;5655;48.744;9.162;2022-09-02T11:55:09;1.30;;;1.10;;
11197;SDS011;5655;48.744;9.162;2022-09-02T11:57:40;1.23;;;1.08;;
11197;SDS011;5655;48.744;9.162;2022-09-02T12:00:24;2.85;;;1.13;;
11197;SDS011;5655;48.744;9.162;2022-09-02T12:02:52;6.30;;;1.50;;
11197;SDS011;5655;48.744;9.162;2022-09-02T12:05:45;2.47;;;1.13;;
11197;SDS011;5655;48.744;9.162;2022-09-02T12:10:57;1.35;;;1.05;;
11197;SDS011;5655;48.744;9.162;2022-09-02T12:13:36;2.22;;;1.20;;
11197;SDS011;5655;48.744;9.162;2022-09-02T12:18:36;1.48;;;1.23;;
11197;SDS011;5655;48.744;9.162;2022-09-02T12:21:04;4.25;;;1.42;;
11197;SDS011;5655;48.744;9.162;2022-09-02T12:26:16;2.20;;;1.00;;
11197;SDS011;5655;48.744;9.162;2022-09-02T12:28:43;4.45;;;1.10;;
11197;SDS011;5655;48.744;9.162;2022-09-02T12:31:55;3.00;;;1.20;;
11197;SDS011;5655;48.744;9.162;2022-09-02T12:36:50;2.45;;;1.25;;
11197;SDS011;5655;48.744;9.162;2022-09-02T12:44:55;5.70;;;1.30;;
11197;SDS011;5655;48.744;9.162;2022-09-02T12:50:27;3.33;;;1.50;;
11197;SDS011;5655;48.744;9.162;2022-09-02T12:53:23;1.88;;;1.30;;
11197;SDS011;5655;48.744;9.162;2022-09-02T12:55:54;1.88;;;1.20;;
11197;SDS011;5655;48.744;9.162;2022-09-02T12:58:23;1.75;;;1.10;;
11197;SDS011;5655;48.744;9.162;2022-09-02T13:03:41;1.40;;;1.30;;
11197;SDS011;5655;48.744;9.162;2022-09-02T13:11:57;2.95;;;1.25;;
11197;SDS011;5655;48.744;9.162;2022-09-02T13:17:26;1.97;;;1.13;;
11197;SDS011;5655;48.744;9.162;2022-09-02T13:31:29;2.65;;;1.50;;
11197;SDS011;5655;48.744;9.162;2022-09-02T13:36:27;3.58;;;1.20;;
11197;SDS011;5655;48.744;9.162;2022-09-02T13:38:54;2.80;;;1.55;;
11197;SDS011;5655;48.744;9.162;2022-09-02T13:41:26;1.55;;;1.10;;
11197;SDS011;5655;48.744;9.162;2022-09-02T13:44:08;4.45;;;1.70;;
11197;SDS011;5655;48.744;9.162;2022-09-02T13:46:45;1.45;;;1.33;;
11197;SDS011;5655;48.744;9.162;2022-09-02T13:49:19;1.30;;;1.20;;
11197;SDS011;5655;48.744;9.162;2022-09-02T13:51:47;1.65;;;1.25;;
11197;SDS011;5655;48.744;9.162;2022-09-02T13:54:21;2.50;;;1.42;;
11197;SDS011;5655;48.744;9.162;2022-09-02T13:56:55;2.08;;;1.65;;
11197;SDS011;5655;48.744;9.162;2022-09-02T13:59:35;2.58;;;1.48;;
11197;SDS011;5655;48.744;9.162;2022-09-02T14:02:15;3.20;;;1.20;;
11197;SDS011;5655;48.744;9.162;2022-09-02T14:05:05;4.15;;;1.70;;
11197;SDS011;5655;48.744;9.162;2022-09-02T14:07:42;1.92;;;1.27;;
11197;SDS011;5655;48.744;9.162;2022-09-02T14:10:11;3.97;;;1.25;;
11197;SDS011;5655;48.744;9.162;2022-09-02T14:12:40;3.83;;;1.45;;
11197;SDS011;5655;48.744;9.162;2022-09-02T14:15:07;2.05;;;1.45;;
11197;SDS011;5655;48.744;9.162;2022-09-02T14:17:34;4.13;;;1.42;;
11197;SDS011;5655;48.744;9.162;2022-09-02T14:22:34;3.47;;;1.40;;
11197;SDS011;5655;48.744;9.162;2022-09-02T14:25:06;2.60;;;1.52;;
11197;SDS011;5655;48.744;9.162;2022-09-02T14:27:33;2.35;;;1.10;;
11197;SDS011;5655;48.744;9.162;2022-09-02T14:29:59;2.42;;;1.48;;
11197;SDS011;5655;48.744;9.162;2022-09-02T14:32:27;3.58;;;1.75;;
11197;SDS011;5655;48.744;9.162;2022-09-02T14:37:46;1.83;;;1.40;;
11197;SDS011;5655;48.744;9.162;2022-09-02T14:40:13;1.50;;;1.25;;
11197;SDS011;5655;48.744;9.162;2022-09-02T14:42:51;2.03;;;1.30;;
11197;SDS011;5655;48.744;9.162;2022-09-02T14:45:24;3.17;;;1.23;;
11197;SDS011;5655;48.744;9.162;2022-09-02T14:47:50;2.63;;;1.23;;
11197;SDS011;5655;48.744;9.162;2022-09-02T14:50:15;1.63;;;1.33;;
11197;SDS011;5655;48.744;9.162;2022-09-02T14:52:47;1.70;;;1.13;;
11197;SDS011;5655;48.744;9.162;2022-09-02T14:58:16;2.67;;;1.60;;
11197;SDS011;5655;48.744;9.162;2022-09-02T15:00:46;1.77;;;1.20;;
11197;SDS011;5655;48.744;9.162;2022-09-02T15:03:16;3.33;;;1.33;;
11197;SDS011;5655;48.744;9.162;2022-09-02T15:05:42;1.65;;;1.17;;
11197;SDS011;5655;48.744;9.162;2022-09-02T15:08:08;1.75;;;1.30;;
11197;SDS011;5655;48.744;9.162;2022-09-02T15:10:33;2.08;;;1.40;;
11197;SDS011;5655;48.744;9.162;2022-09-02T15:12:59;1.98;;;1.48;;
11197;SDS011;5655;48.744;9.162;2022-09-02T15:15:25;2.63;;;1.25;;
11197;SDS011;5655;48.744;9.162;2022-09-02T15:17:51;2.75;;;1.48;;
11197;SDS011;5655;48.744;9.162;2022-09-02T15:20:17;2.15;;;1.30;;
11197;SDS011;5655;48.744;9.162;2022-09-02T15:22:42;2.95;;;1.25;;
11197;SDS011;5655;48.744;9.162;2022-09-02T15:25:08;3.17;;;1.30;;
11197;SDS011;5655;48.744;9.162;2022-09-02T15:27:34;2.25;;;1.45;;
11197;SDS011;5655;48.744;9.162;2022-09-02T15:30:00;1.30;;;1.20;;
11197;SDS011;5655;48.744;9.162;2022-09-02T15:32:26;1.33;;;1.23;;
11197;SDS011;5655;48.744;9.162;2022-09-02T15:34:52;1.33;;;1.10;;
11197;SDS011;5655;48.744;9.162;2022-09-02T15:37:17;5.60;;;1.55;;
11197;SDS011;5655;48.744;9.162;2022-09-02T15:39:43;1.88;;;1.33;;
11197;SDS011;5655;48.744;9.162;2022-09-02T15:42:08;1.33;;;1.20;;
11197;SDS011;5655;48.744;9.162;2022-09-02T15:44:34;2.75;;;1.50;;
11197;SDS011;5655;48.744;9.162;2022-09-02T15:46:59;2.63;;;1.30;;
11197;SDS011;5655;48.744;9.162;2022-09-02T15:49:24;1.98;;;1.10;;
11197;SDS011;5655;48.744;9.162;2022-09-02T15:51:50;2.33;;;1.50;;
11197;SDS011;5655;48.744;9.162;2022-09-02T15:54:17;2.67;;;1.20;;
11197;SDS011;5655;48.744;9.162;2022-09-02T15:56:44;4.20;;;1.25;;
11197;SDS011;5655;48.744;9.162;2022-09-02T16:01:42;1.60;;;1.20;;
11197;SDS011;5655;48.744;9.162;2022-09-02T16:04:10;1.20;;;1.10;;
11197;SDS011;5655;48.744;9.162;2022-09-02T16:06:37;2.35;;;1.35;;
11197;SDS011;5655;48.744;9.162;2022-09-02T16:09:05;2.85;;;1.33;;
11197;SDS011;5655;48.744;9.162;2022-09-02T16:11:38;3.78;;;1.20;;
11197;SDS011;5655;48.744;9.162;2022-09-02T16:14:05;1.58;;;1.25;;
11197;SDS011;5655;48.744;9.162;2022-09-02T16:16:31;2.15;;;1.48;;
11197;SDS011;5655;48.744;9.162;2022-09-02T16:18:58;2.03;;;1.00;;
11197;SDS011;5655;48.744;9.162;2022-09-02T16:21:23;1.45;;;1.30;;
11197;SDS011;5655;48.744;9.162;2022-09-02T16:23:49;4.88;;;1.20;;
11197;SDS011;5655;48.744;9.162;2022-09-02T16:26:22;1.40;;;1.13;;
11197;SDS011;5655;48.744;9.162;2022-09-02T16:28:50;2.17;;;1.40;;
11197;SDS011;5655;48.744;9.162;2022-09-02T16:31:18;3.05;;;1.15;;
11197;SDS011;5655;48.744;9.162;2022-09-02T16:33:50;1.83;;;0.93;;
11197;SDS011;5655;48.744;9.162;2022-09-02T16:36:17;4.57;;;1.33;;
11197;SDS011;5655;48.744;9.162;2022-09-02T16:38:42;1.33;;;1.05;;
11197;SDS011;5655;48.744;9.162;2022-09-02T16:41:08;3.13;;;1.52;;
11197;SDS011;5655;48.744;9.162;2022-09-02T16:43:55;1.70;;;1.30;;
11197;SDS011;5655;48.744;9.162;2022-09-02T16:46:22;3.40;;;1.10;;
11197;SDS011;5655;48.744;9.162;2022-09-02T16:48:48;3.15;;;1.55;;
11197;SDS011;5655;48.744;9.162;2022-09-02T16:51:14;2.05;;;1.15;;
11197;SDS011;5655;48.744;9.162;2022-09-02T16:53:40;4.80;;;1.30;;
11197;SDS011;5655;48.744;9.162;2022-09-02T16:56:06;3.15;;;1.27;;
11197;SDS011;5655;48.744;9.162;2022-09-02T16:58:36;2.38;;;1.13;;
11197;SDS011;5655;48.744;9.162;2022-09-02T17:01:05;2.72;;;1.35;;
11197;SDS011;5655;48.744;9.162;2022-09-02T17:03:32;2.90;;;1.13;;
11197;SDS011;5655;48.744;9.162;2022-09-02T17:05:58;1.48;;;1.20;;
11197;SDS011;5655;48.744;9.162;2022-09-02T17:08:23;2.40;;;1.35;;
11197;SDS011;5655;48.744;9.162;2022-09-02T17:10:48;1.27;;;1.10;;
11197;SDS011;5655;48.744;9.162;2022-09-02T17:13:14;2.22;;;1.23;;
11197;SDS011;5655;48.744;9.162;2022-09-02T17:15:39;2.20;;;1.42;;
11197;SDS011;5655;48.744;9.162;2022-09-02T17:18:04;2.70;;;1.33;;
11197;SDS011;5655;48.744;9.162;2022-09-02T17:20:30;1.40;;;1.27;;
11197;SDS011;5655;48.744;9.162;2022-09-02T17:22:55;1.98;;;1.30;;
11197;SDS011;5655;48.744;9.162;2022-09-02T17:25:21;4.80;;;1.60;;
11197;SDS011;5655;48.744;9.162;2022-09-02T17:27:46;1.75;;;1.20;;
11197;SDS011;5655;48.744;9.162;2022-09-02T17:30:12;2.97;;;1.17;;